sensor_id;sensor_type;location;lat;lon;timestamp;temperature;humidity
63051;SHT30;49136;47.416;19.402;2022-08-30T00:00:11;19.13;91.30
63051;SHT30;49136;47.416;19.402;2022-08-30T00:02:55;19.12;91.24
63051;SHT30;49136;47.416;19.402;2022-08-30T00:05:21;19.16;91.22
63051;SHT30;49136;47.416;19.402;2022-08-30T00:07:47;19.09;91.25
63051;SHT30;49136;47.416;19.402;2022-08-30T00:10:13;19.05;91.31
63051;SHT30;49136;47.416;19.402;2022-08-30T00:12:38;19.07;91.27
63051;SHT30;49136;47.416;19.402;2022-08-30T00:15:04;19.10;91.25
63051;SHT30;49136;47.416;19.402;2022-08-30T00:17:31;19.10;90.96
63051;SHT30;49136;47.416;19.402;2022-08-30T00:19:57;19.12;91.05
63051;SHT30;49136;47.416;19.402;2022-08-30T00:22:23;19.09;91.09
63051;SHT30;49136;47.416;19.402;2022-08-30T00:24:48;19.09;90.86
63051;SHT30;49136;47.416;19.402;2022-08-30T00:27:14;19.06;90.96
63051;SHT30;49136;47.416;19.402;2022-08-30T00:29:40;19.22;90.55
63051;SHT30;49136;47.416;19.402;2022-08-30T00:32:05;19.24;90.69
63051;SHT30;49136;47.416;19.402;2022-08-30T00:34:30;19.22;90.63
63051;SHT30;49136;47.416;19.402;2022-08-30T00:36:56;19.23;90.53
63051;SHT30;49136;47.416;19.402;2022-08-30T00:39:23;19.23;90.39
63051;SHT30;49136;47.416;19.402;2022-08-30T00:41:48;19.27;90.58
63051;SHT30;49136;47.416;19.402;2022-08-30T00:44:14;19.16;90.75
63051;SHT30;49136;47.416;19.402;2022-08-30T00:46:39;19.13;90.91
63051;SHT30;49136;47.416;19.402;2022-08-30T00:49:06;19.10;90.90
63051;SHT30;49136;47.416;19.402;2022-08-30T00:51:33;19.06;91.05
63051;SHT30;49136;47.416;19.402;2022-08-30T00:53:59;19.02;90.95
63051;SHT30;49136;47.416;19.402;2022-08-30T00:56:25;18.96;90.96
63051;SHT30;49136;47.416;19.402;2022-08-30T00:58:54;18.92;91.19
63051;SHT30;49136;47.416;19.402;2022-08-30T01:01:20;18.91;91.13
63051;SHT30;49136;47.416;19.402;2022-08-30T01:03:46;18.84;91.27
63051;SHT30;49136;47.416;19.402;2022-08-30T01:06:14;18.81;91.21
63051;SHT30;49136;47.416;19.402;2022-08-30T01:08:40;18.78;91.29
63051;SHT30;49136;47.416;19.402;2022-08-30T01:11:06;18.75;91.24
63051;SHT30;49136;47.416;19.402;2022-08-30T01:13:32;18.72;91.12
63051;SHT30;49136;47.416;19.402;2022-08-30T01:16:01;18.69;91.07
63051;SHT30;49136;47.416;19.402;2022-08-30T01:18:27;18.67;91.06
63051;SHT30;49136;47.416;19.402;2022-08-30T01:23:30;18.68;91.07
63051;SHT30;49136;47.416;19.402;2022-08-30T01:25:56;18.65;90.97
63051;SHT30;49136;47.416;19.402;2022-08-30T01:28:24;18.69;91.02
63051;SHT30;49136;47.416;19.402;2022-08-30T01:30:50;18.67;91.13
63051;SHT30;49136;47.416;19.402;2022-08-30T01:33:16;18.60;91.00
63051;SHT30;49136;47.416;19.402;2022-08-30T01:35:58;18.54;91.07
63051;SHT30;49136;47.416;19.402;2022-08-30T01:38:29;18.47;91.24
63051;SHT30;49136;47.416;19.402;2022-08-30T01:41:07;18.41;91.23
63051;SHT30;49136;47.416;19.402;2022-08-30T01:43:34;18.36;91.30
63051;SHT30;49136;47.416;19.402;2022-08-30T01:45:59;18.32;91.40
63051;SHT30;49136;47.416;19.402;2022-08-30T01:48:26;18.29;91.51
63051;SHT30;49136;47.416;19.402;2022-08-30T01:50:53;18.29;91.40
63051;SHT30;49136;47.416;19.402;2022-08-30T01:53:18;18.20;91.44
63051;SHT30;49136;47.416;19.402;2022-08-30T01:55:43;18.17;91.65
63051;SHT30;49136;47.416;19.402;2022-08-30T01:58:09;18.12;91.68
63051;SHT30;49136;47.416;19.402;2022-08-30T02:00:35;18.10;91.70
63051;SHT30;49136;47.416;19.402;2022-08-30T02:03:00;18.08;91.62
63051;SHT30;49136;47.416;19.402;2022-08-30T02:05:26;18.08;91.76
63051;SHT30;49136;47.416;19.402;2022-08-30T02:07:51;18.12;91.67
63051;SHT30;49136;47.416;19.402;2022-08-30T02:10:18;18.10;91.69
63051;SHT30;49136;47.416;19.402;2022-08-30T02:12:45;18.06;91.74
63051;SHT30;49136;47.416;19.402;2022-08-30T02:15:12;18.05;91.74
63051;SHT30;49136;47.416;19.402;2022-08-30T02:17:38;18.06;91.70
63051;SHT30;49136;47.416;19.402;2022-08-30T02:20:05;18.04;91.86
63051;SHT30;49136;47.416;19.402;2022-08-30T02:22:31;18.05;91.81
63051;SHT30;49136;47.416;19.402;2022-08-30T02:24:56;18.08;91.80
63051;SHT30;49136;47.416;19.402;2022-08-30T02:27:22;18.02;91.87
63051;SHT30;49136;47.416;19.402;2022-08-30T02:29:48;18.05;91.86
63051;SHT30;49136;47.416;19.402;2022-08-30T02:32:13;18.04;91.89
63051;SHT30;49136;47.416;19.402;2022-08-30T02:34:38;18.05;91.94
63051;SHT30;49136;47.416;19.402;2022-08-30T02:37:04;18.02;91.89
63051;SHT30;49136;47.416;19.402;2022-08-30T02:39:30;18.02;91.93
63051;SHT30;49136;47.416;19.402;2022-08-30T02:41:56;18.06;91.91
63051;SHT30;49136;47.416;19.402;2022-08-30T02:44:21;18.05;91.93
63051;SHT30;49136;47.416;19.402;2022-08-30T02:46:47;18.01;91.91
63051;SHT30;49136;47.416;19.402;2022-08-30T02:49:12;18.06;91.98
63051;SHT30;49136;47.416;19.402;2022-08-30T02:51:39;18.04;91.94
63051;SHT30;49136;47.416;19.402;2022-08-30T02:54:05;18.06;92.02
63051;SHT30;49136;47.416;19.402;2022-08-30T02:56:31;18.04;91.98
63051;SHT30;49136;47.416;19.402;2022-08-30T02:58:56;18.06;92.03
63051;SHT30;49136;47.416;19.402;2022-08-30T03:01:22;18.05;92.05
63051;SHT30;49136;47.416;19.402;2022-08-30T03:03:47;18.09;91.96
63051;SHT30;49136;47.416;19.402;2022-08-30T03:06:14;18.06;92.02
63051;SHT30;49136;47.416;19.402;2022-08-30T03:08:40;18.12;92.02
63051;SHT30;49136;47.416;19.402;2022-08-30T03:11:06;18.13;91.99
63051;SHT30;49136;47.416;19.402;2022-08-30T03:13:31;18.15;92.11
63051;SHT30;49136;47.416;19.402;2022-08-30T03:15:57;18.20;91.74
63051;SHT30;49136;47.416;19.402;2022-08-30T03:18:23;18.30;91.37
63051;SHT30;49136;47.416;19.402;2022-08-30T03:20:48;18.46;90.91
63051;SHT30;49136;47.416;19.402;2022-08-30T03:23:14;18.47;90.79
63051;SHT30;49136;47.416;19.402;2022-08-30T03:25:40;18.48;90.45
63051;SHT30;49136;47.416;19.402;2022-08-30T03:28:06;18.58;90.18
63051;SHT30;49136;47.416;19.402;2022-08-30T03:30:32;18.58;90.16
63051;SHT30;49136;47.416;19.402;2022-08-30T03:32:58;18.58;89.99
63051;SHT30;49136;47.416;19.402;2022-08-30T03:35:23;18.47;90.31
63051;SHT30;49136;47.416;19.402;2022-08-30T03:37:49;18.43;90.22
63051;SHT30;49136;47.416;19.402;2022-08-30T03:40:16;18.39;90.28
63051;SHT30;49136;47.416;19.402;2022-08-30T03:42:44;18.37;90.29
63051;SHT30;49136;47.416;19.402;2022-08-30T03:45:10;18.30;90.33
63051;SHT30;49136;47.416;19.402;2022-08-30T03:47:36;18.26;90.67
63051;SHT30;49136;47.416;19.402;2022-08-30T03:50:02;18.23;90.41
63051;SHT30;49136;47.416;19.402;2022-08-30T03:52:27;18.22;90.31
63051;SHT30;49136;47.416;19.402;2022-08-30T03:54:53;18.20;90.42
63051;SHT30;49136;47.416;19.402;2022-08-30T03:57:19;18.13;90.59
63051;SHT30;49136;47.416;19.402;2022-08-30T03:59:44;18.16;90.38
63051;SHT30;49136;47.416;19.402;2022-08-30T04:02:10;18.09;90.27
63051;SHT30;49136;47.416;19.402;2022-08-30T04:04:35;18.08;90.20
63051;SHT30;49136;47.416;19.402;2022-08-30T04:07:01;18.13;90.04
63051;SHT30;49136;47.416;19.402;2022-08-30T04:09:26;18.19;89.90
63051;SHT30;49136;47.416;19.402;2022-08-30T04:11:52;18.19;89.84
63051;SHT30;49136;47.416;19.402;2022-08-30T04:14:17;18.25;89.69
63051;SHT30;49136;47.416;19.402;2022-08-30T04:16:43;18.25;89.53
63051;SHT30;49136;47.416;19.402;2022-08-30T04:19:08;18.29;89.65
63051;SHT30;49136;47.416;19.402;2022-08-30T04:21:34;18.34;89.40
63051;SHT30;49136;47.416;19.402;2022-08-30T04:23:59;18.40;89.11
63051;SHT30;49136;47.416;19.402;2022-08-30T04:26:25;18.40;89.19
63051;SHT30;49136;47.416;19.402;2022-08-30T04:28:52;18.40;89.07
63051;SHT30;49136;47.416;19.402;2022-08-30T04:31:17;18.36;89.44
63051;SHT30;49136;47.416;19.402;2022-08-30T04:33:43;18.41;89.02
63051;SHT30;49136;47.416;19.402;2022-08-30T04:36:10;18.43;89.10
63051;SHT30;49136;47.416;19.402;2022-08-30T04:38:36;18.43;88.91
63051;SHT30;49136;47.416;19.402;2022-08-30T04:41:09;18.47;88.76
63051;SHT30;49136;47.416;19.402;2022-08-30T04:43:35;18.48;88.69
63051;SHT30;49136;47.416;19.402;2022-08-30T04:46:04;18.50;88.56
63051;SHT30;49136;47.416;19.402;2022-08-30T04:48:30;18.54;88.39
63051;SHT30;49136;47.416;19.402;2022-08-30T04:50:55;18.60;88.28
63051;SHT30;49136;47.416;19.402;2022-08-30T04:53:20;18.60;88.19
63051;SHT30;49136;47.416;19.402;2022-08-30T04:55:46;18.64;88.02
63051;SHT30;49136;47.416;19.402;2022-08-30T04:58:12;18.72;87.69
63051;SHT30;49136;47.416;19.402;2022-08-30T05:00:37;18.82;87.30
63051;SHT30;49136;47.416;19.402;2022-08-30T05:03:06;18.85;87.46
63051;SHT30;49136;47.416;19.402;2022-08-30T05:05:31;18.98;87.15
63051;SHT30;49136;47.416;19.402;2022-08-30T05:08:17;19.02;87.02
63051;SHT30;49136;47.416;19.402;2022-08-30T05:10:45;19.06;87.30
63051;SHT30;49136;47.416;19.402;2022-08-30T05:13:11;19.06;87.63
63051;SHT30;49136;47.416;19.402;2022-08-30T05:15:37;19.16;87.08
63051;SHT30;49136;47.416;19.402;2022-08-30T05:18:05;19.17;87.17
63051;SHT30;49136;47.416;19.402;2022-08-30T05:20:32;19.28;86.80
63051;SHT30;49136;47.416;19.402;2022-08-30T05:22:58;19.50;85.99
63051;SHT30;49136;47.416;19.402;2022-08-30T05:25:26;19.54;85.69
63051;SHT30;49136;47.416;19.402;2022-08-30T05:27:54;19.64;85.29
63051;SHT30;49136;47.416;19.402;2022-08-30T05:30:20;19.81;85.24
63051;SHT30;49136;47.416;19.402;2022-08-30T05:32:46;19.96;84.73
63051;SHT30;49136;47.416;19.402;2022-08-30T05:35:13;20.14;83.92
63051;SHT30;49136;47.416;19.402;2022-08-30T05:37:39;20.28;83.38
63051;SHT30;49136;47.416;19.402;2022-08-30T05:40:05;20.38;83.49
63051;SHT30;49136;47.416;19.402;2022-08-30T05:42:31;20.59;83.65
63051;SHT30;49136;47.416;19.402;2022-08-30T05:44:57;20.71;83.28
63051;SHT30;49136;47.416;19.402;2022-08-30T05:47:23;20.85;82.77
63051;SHT30;49136;47.416;19.402;2022-08-30T05:49:48;21.03;82.07
63051;SHT30;49136;47.416;19.402;2022-08-30T05:52:14;21.14;80.99
63051;SHT30;49136;47.416;19.402;2022-08-30T05:54:43;21.38;80.50
63051;SHT30;49136;47.416;19.402;2022-08-30T05:57:09;21.41;79.31
63051;SHT30;49136;47.416;19.402;2022-08-30T05:59:34;21.48;79.15
63051;SHT30;49136;47.416;19.402;2022-08-30T06:02:00;21.77;78.29
63051;SHT30;49136;47.416;19.402;2022-08-30T06:04:25;21.90;77.56
63051;SHT30;49136;47.416;19.402;2022-08-30T06:06:51;22.48;76.46
63051;SHT30;49136;47.416;19.402;2022-08-30T06:09:17;22.38;75.57
63051;SHT30;49136;47.416;19.402;2022-08-30T06:11:43;22.45;74.25
63051;SHT30;49136;47.416;19.402;2022-08-30T06:14:09;22.31;74.90
63051;SHT30;49136;47.416;19.402;2022-08-30T06:16:37;22.46;74.24
63051;SHT30;49136;47.416;19.402;2022-08-30T06:19:04;22.45;72.16
63051;SHT30;49136;47.416;19.402;2022-08-30T06:21:33;22.67;72.30
63051;SHT30;49136;47.416;19.402;2022-08-30T06:24:00;22.87;71.52
63051;SHT30;49136;47.416;19.402;2022-08-30T06:26:27;23.18;69.62
63051;SHT30;49136;47.416;19.402;2022-08-30T06:28:53;23.28;68.95
63051;SHT30;49136;47.416;19.402;2022-08-30T06:31:20;23.05;70.11
63051;SHT30;49136;47.416;19.402;2022-08-30T06:33:46;23.00;69.80
63051;SHT30;49136;47.416;19.402;2022-08-30T06:36:14;22.66;69.99
63051;SHT30;49136;47.416;19.402;2022-08-30T06:38:40;22.76;70.51
63051;SHT30;49136;47.416;19.402;2022-08-30T06:41:09;22.64;69.77
63051;SHT30;49136;47.416;19.402;2022-08-30T06:43:34;22.93;68.19
63051;SHT30;49136;47.416;19.402;2022-08-30T06:46:07;22.94;68.95
63051;SHT30;49136;47.416;19.402;2022-08-30T06:48:33;23.10;69.31
63051;SHT30;49136;47.416;19.402;2022-08-30T06:50:59;22.62;68.78
63051;SHT30;49136;47.416;19.402;2022-08-30T06:53:25;22.76;67.79
63051;SHT30;49136;47.416;19.402;2022-08-30T06:56:10;22.93;68.26
63051;SHT30;49136;47.416;19.402;2022-08-30T06:58:37;23.32;68.40
63051;SHT30;49136;47.416;19.402;2022-08-30T07:01:04;23.60;67.80
63051;SHT30;49136;47.416;19.402;2022-08-30T07:03:30;23.57;66.20
63051;SHT30;49136;47.416;19.402;2022-08-30T07:05:55;23.91;67.52
63051;SHT30;49136;47.416;19.402;2022-08-30T07:08:22;23.85;66.19
63051;SHT30;49136;47.416;19.402;2022-08-30T07:10:49;23.46;66.31
63051;SHT30;49136;47.416;19.402;2022-08-30T07:13:16;23.38;66.51
63051;SHT30;49136;47.416;19.402;2022-08-30T07:15:43;23.53;67.84
63051;SHT30;49136;47.416;19.402;2022-08-30T07:18:10;23.60;66.74
63051;SHT30;49136;47.416;19.402;2022-08-30T07:20:55;23.63;65.37
63051;SHT30;49136;47.416;19.402;2022-08-30T07:23:21;23.74;66.31
63051;SHT30;49136;47.416;19.402;2022-08-30T07:25:47;24.06;63.97
63051;SHT30;49136;47.416;19.402;2022-08-30T07:28:12;24.14;64.35
63051;SHT30;49136;47.416;19.402;2022-08-30T07:30:39;24.18;64.16
63051;SHT30;49136;47.416;19.402;2022-08-30T07:33:05;24.16;64.32
63051;SHT30;49136;47.416;19.402;2022-08-30T07:35:31;23.73;63.44
63051;SHT30;49136;47.416;19.402;2022-08-30T07:37:57;23.94;64.83
63051;SHT30;49136;47.416;19.402;2022-08-30T07:40:23;24.44;63.12
63051;SHT30;49136;47.416;19.402;2022-08-30T07:42:48;24.98;65.18
63051;SHT30;49136;47.416;19.402;2022-08-30T07:45:14;25.36;66.77
63051;SHT30;49136;47.416;19.402;2022-08-30T07:47:39;25.74;64.08
63051;SHT30;49136;47.416;19.402;2022-08-30T07:50:06;25.88;61.21
63051;SHT30;49136;47.416;19.402;2022-08-30T07:52:31;25.93;62.04
63051;SHT30;49136;47.416;19.402;2022-08-30T07:54:58;25.86;62.84
63051;SHT30;49136;47.416;19.402;2022-08-30T07:57:24;25.33;57.47
63051;SHT30;49136;47.416;19.402;2022-08-30T07:59:50;25.54;64.23
63051;SHT30;49136;47.416;19.402;2022-08-30T08:02:15;25.30;57.98
63051;SHT30;49136;47.416;19.402;2022-08-30T08:04:41;25.60;60.78
63051;SHT30;49136;47.416;19.402;2022-08-30T08:07:06;25.88;61.62
63051;SHT30;49136;47.416;19.402;2022-08-30T08:09:32;25.80;57.54
63051;SHT30;49136;47.416;19.402;2022-08-30T08:12:00;25.89;60.83
63051;SHT30;49136;47.416;19.402;2022-08-30T08:14:27;25.93;57.86
63051;SHT30;49136;47.416;19.402;2022-08-30T08:16:52;25.95;59.75
63051;SHT30;49136;47.416;19.402;2022-08-30T08:19:18;25.93;57.89
63051;SHT30;49136;47.416;19.402;2022-08-30T08:21:44;25.26;56.12
63051;SHT30;49136;47.416;19.402;2022-08-30T08:24:10;25.56;58.08
63051;SHT30;49136;47.416;19.402;2022-08-30T08:26:37;25.89;61.21
63051;SHT30;49136;47.416;19.402;2022-08-30T08:29:05;26.40;59.44
63051;SHT30;49136;47.416;19.402;2022-08-30T08:31:31;26.26;56.77
63051;SHT30;49136;47.416;19.402;2022-08-30T08:33:57;26.29;54.29
63051;SHT30;49136;47.416;19.402;2022-08-30T08:36:25;26.69;54.85
63051;SHT30;49136;47.416;19.402;2022-08-30T08:38:50;27.52;54.49
63051;SHT30;49136;47.416;19.402;2022-08-30T08:43:50;27.03;55.77
63051;SHT30;49136;47.416;19.402;2022-08-30T08:46:36;26.79;56.95
63051;SHT30;49136;47.416;19.402;2022-08-30T08:49:05;26.60;55.92
63051;SHT30;49136;47.416;19.402;2022-08-30T08:51:34;27.31;52.47
63051;SHT30;49136;47.416;19.402;2022-08-30T08:54:55;27.86;55.37
63051;SHT30;49136;47.416;19.402;2022-08-30T08:57:22;27.03;53.67
63051;SHT30;49136;47.416;19.402;2022-08-30T08:59:47;27.04;53.09
63051;SHT30;49136;47.416;19.402;2022-08-30T09:02:28;27.27;52.28
63051;SHT30;49136;47.416;19.402;2022-08-30T09:04:58;28.43;53.96
63051;SHT30;49136;47.416;19.402;2022-08-30T09:07:27;28.84;54.05
63051;SHT30;49136;47.416;19.402;2022-08-30T09:09:53;28.25;50.08
63051;SHT30;49136;47.416;19.402;2022-08-30T09:12:19;28.43;55.19
63051;SHT30;49136;47.416;19.402;2022-08-30T09:15:19;28.86;53.46
63051;SHT30;49136;47.416;19.402;2022-08-30T09:20:29;29.35;48.65
63051;SHT30;49136;47.416;19.402;2022-08-30T09:22:56;29.35;49.45
63051;SHT30;49136;47.416;19.402;2022-08-30T09:25:26;29.20;50.01
63051;SHT30;49136;47.416;19.402;2022-08-30T09:27:53;29.04;51.20
63051;SHT30;49136;47.416;19.402;2022-08-30T09:30:27;28.59;53.64
63051;SHT30;49136;47.416;19.402;2022-08-30T09:33:03;29.27;50.21
63051;SHT30;49136;47.416;19.402;2022-08-30T09:35:37;29.48;51.78
63051;SHT30;49136;47.416;19.402;2022-08-30T09:38:10;29.52;52.14
63051;SHT30;49136;47.416;19.402;2022-08-30T09:43:19;30.63;49.30
63051;SHT30;49136;47.416;19.402;2022-08-30T09:45:49;31.01;48.76
63051;SHT30;49136;47.416;19.402;2022-08-30T09:53:36;31.90;45.83
63051;SHT30;49136;47.416;19.402;2022-08-30T09:56:16;32.08;46.49
63051;SHT30;49136;47.416;19.402;2022-08-30T10:02:12;32.48;45.73
63051;SHT30;49136;47.416;19.402;2022-08-30T10:04:51;31.81;47.11
63051;SHT30;49136;47.416;19.402;2022-08-30T10:10:58;32.31;45.59
63051;SHT30;49136;47.416;19.402;2022-08-30T10:18:57;32.44;43.14
63051;SHT30;49136;47.416;19.402;2022-08-30T10:24:10;31.70;45.94
63051;SHT30;49136;47.416;19.402;2022-08-30T10:26:50;32.15;46.90
63051;SHT30;49136;47.416;19.402;2022-08-30T10:29:22;32.90;46.47
63051;SHT30;49136;47.416;19.402;2022-08-30T10:32:02;32.29;42.03
63051;SHT30;49136;47.416;19.402;2022-08-30T10:34:53;32.49;43.39
63051;SHT30;49136;47.416;19.402;2022-08-30T10:37:23;32.57;42.93
63051;SHT30;49136;47.416;19.402;2022-08-30T10:39:52;32.52;46.63
63051;SHT30;49136;47.416;19.402;2022-08-30T10:42:24;33.12;43.38
63051;SHT30;49136;47.416;19.402;2022-08-30T10:45:05;32.37;42.56
63051;SHT30;49136;47.416;19.402;2022-08-30T10:47:34;31.84;43.03
63051;SHT30;49136;47.416;19.402;2022-08-30T10:50:34;30.87;47.11
63051;SHT30;49136;47.416;19.402;2022-08-30T10:53:20;30.49;46.08
63051;SHT30;49136;47.416;19.402;2022-08-30T10:55:52;30.88;47.31
63051;SHT30;49136;47.416;19.402;2022-08-30T10:58:19;29.80;47.25
63051;SHT30;49136;47.416;19.402;2022-08-30T11:06:26;29.21;50.57
63051;SHT30;49136;47.416;19.402;2022-08-30T11:14:10;29.76;49.54
63051;SHT30;49136;47.416;19.402;2022-08-30T11:16:41;29.66;48.93
63051;SHT30;49136;47.416;19.402;2022-08-30T11:19:18;29.39;49.47
63051;SHT30;49136;47.416;19.402;2022-08-30T11:21:46;29.38;50.03
63051;SHT30;49136;47.416;19.402;2022-08-30T11:24:22;29.03;48.52
63051;SHT30;49136;47.416;19.402;2022-08-30T11:29:43;30.49;50.37
63051;SHT30;49136;47.416;19.402;2022-08-30T11:37:29;30.73;47.85
63051;SHT30;49136;47.416;19.402;2022-08-30T11:40:04;29.02;48.27
63051;SHT30;49136;47.416;19.402;2022-08-30T11:42:34;29.21;52.82
63051;SHT30;49136;47.416;19.402;2022-08-30T11:48:06;30.31;47.46
63051;SHT30;49136;47.416;19.402;2022-08-30T11:50:52;29.44;47.90
63051;SHT30;49136;47.416;19.402;2022-08-30T11:56:12;30.74;47.40
63051;SHT30;49136;47.416;19.402;2022-08-30T11:58:59;31.02;47.43
63051;SHT30;49136;47.416;19.402;2022-08-30T12:09:11;31.29;46.29
63051;SHT30;49136;47.416;19.402;2022-08-30T12:12:08;31.85;46.34
63051;SHT30;49136;47.416;19.402;2022-08-30T12:14:56;31.63;46.48
63051;SHT30;49136;47.416;19.402;2022-08-30T12:20:39;32.39;45.63
63051;SHT30;49136;47.416;19.402;2022-08-30T12:23:37;32.15;42.54
63051;SHT30;49136;47.416;19.402;2022-08-30T12:28:37;32.52;44.27
63051;SHT30;49136;47.416;19.402;2022-08-30T12:31:09;32.77;44.94
63051;SHT30;49136;47.416;19.402;2022-08-30T12:33:43;32.29;44.96
63051;SHT30;49136;47.416;19.402;2022-08-30T12:36:39;32.28;45.84
63051;SHT30;49136;47.416;19.402;2022-08-30T12:39:09;32.08;46.06
63051;SHT30;49136;47.416;19.402;2022-08-30T12:41:35;31.28;44.44
63051;SHT30;49136;47.416;19.402;2022-08-30T12:44:01;31.15;45.35
63051;SHT30;49136;47.416;19.402;2022-08-30T12:46:27;31.42;47.12
63051;SHT30;49136;47.416;19.402;2022-08-30T12:48:54;31.49;44.92
63051;SHT30;49136;47.416;19.402;2022-08-30T12:51:46;31.42;45.60
63051;SHT30;49136;47.416;19.402;2022-08-30T12:54:15;31.98;44.61
63051;SHT30;49136;47.416;19.402;2022-08-30T12:57:01;31.50;43.93
63051;SHT30;49136;47.416;19.402;2022-08-30T12:59:40;31.59;46.92
63051;SHT30;49136;47.416;19.402;2022-08-30T13:02:11;31.70;45.37
63051;SHT30;49136;47.416;19.402;2022-08-30T13:04:37;30.95;46.36
63051;SHT30;49136;47.416;19.402;2022-08-30T13:07:03;31.66;44.94
63051;SHT30;49136;47.416;19.402;2022-08-30T13:09:33;30.52;46.60
63051;SHT30;49136;47.416;19.402;2022-08-30T13:12:04;30.48;45.11
63051;SHT30;49136;47.416;19.402;2022-08-30T13:14:42;31.19;46.65
63051;SHT30;49136;47.416;19.402;2022-08-30T13:19:42;30.36;45.16
63051;SHT30;49136;47.416;19.402;2022-08-30T13:22:30;31.19;46.87
63051;SHT30;49136;47.416;19.402;2022-08-30T13:24:56;31.85;44.73
63051;SHT30;49136;47.416;19.402;2022-08-30T13:27:21;32.21;45.71
63051;SHT30;49136;47.416;19.402;2022-08-30T13:29:47;32.36;46.78
63051;SHT30;49136;47.416;19.402;2022-08-30T13:32:13;32.66;45.08
63051;SHT30;49136;47.416;19.402;2022-08-30T13:34:39;32.92;43.93
63051;SHT30;49136;47.416;19.402;2022-08-30T13:37:06;32.98;43.22
63051;SHT30;49136;47.416;19.402;2022-08-30T13:39:32;32.63;46.52
63051;SHT30;49136;47.416;19.402;2022-08-30T13:41:58;32.81;43.83
63051;SHT30;49136;47.416;19.402;2022-08-30T13:44:23;32.92;44.45
63051;SHT30;49136;47.416;19.402;2022-08-30T13:46:54;32.83;41.60
63051;SHT30;49136;47.416;19.402;2022-08-30T13:49:30;32.77;44.05
63051;SHT30;49136;47.416;19.402;2022-08-30T13:51:56;32.64;43.27
63051;SHT30;49136;47.416;19.402;2022-08-30T13:54:23;32.97;43.95
63051;SHT30;49136;47.416;19.402;2022-08-30T13:56:50;33.14;43.39
63051;SHT30;49136;47.416;19.402;2022-08-30T13:59:17;33.15;43.08
63051;SHT30;49136;47.416;19.402;2022-08-30T14:01:42;33.29;42.05
63051;SHT30;49136;47.416;19.402;2022-08-30T14:04:08;32.77;42.55
63051;SHT30;49136;47.416;19.402;2022-08-30T14:06:33;32.81;43.85
63051;SHT30;49136;47.416;19.402;2022-08-30T14:08:59;32.97;43.11
63051;SHT30;49136;47.416;19.402;2022-08-30T14:11:24;33.02;42.56
63051;SHT30;49136;47.416;19.402;2022-08-30T14:13:50;32.28;43.60
63051;SHT30;49136;47.416;19.402;2022-08-30T14:16:16;32.14;43.57
63051;SHT30;49136;47.416;19.402;2022-08-30T14:18:41;31.83;43.65
63051;SHT30;49136;47.416;19.402;2022-08-30T14:21:06;30.84;45.22
63051;SHT30;49136;47.416;19.402;2022-08-30T14:23:32;31.24;45.55
63051;SHT30;49136;47.416;19.402;2022-08-30T14:25:57;31.32;44.62
63051;SHT30;49136;47.416;19.402;2022-08-30T14:28:24;31.70;45.85
63051;SHT30;49136;47.416;19.402;2022-08-30T14:30:52;31.72;45.39
63051;SHT30;49136;47.416;19.402;2022-08-30T14:33:18;31.94;44.69
63051;SHT30;49136;47.416;19.402;2022-08-30T14:35:43;32.29;44.93
63051;SHT30;49136;47.416;19.402;2022-08-30T14:38:08;32.31;45.32
63051;SHT30;49136;47.416;19.402;2022-08-30T14:40:34;32.00;44.71
63051;SHT30;49136;47.416;19.402;2022-08-30T14:42:59;31.74;44.96
63051;SHT30;49136;47.416;19.402;2022-08-30T14:45:25;31.42;46.70
63051;SHT30;49136;47.416;19.402;2022-08-30T14:47:50;30.35;45.59
63051;SHT30;49136;47.416;19.402;2022-08-30T14:50:15;30.32;46.13
63051;SHT30;49136;47.416;19.402;2022-08-30T14:52:41;30.48;47.07
63051;SHT30;49136;47.416;19.402;2022-08-30T14:55:09;30.70;46.21
63051;SHT30;49136;47.416;19.402;2022-08-30T14:57:35;30.59;45.94
63051;SHT30;49136;47.416;19.402;2022-08-30T15:00:02;30.41;48.65
63051;SHT30;49136;47.416;19.402;2022-08-30T15:02:28;30.01;47.35
63051;SHT30;49136;47.416;19.402;2022-08-30T15:04:53;29.74;50.04
63051;SHT30;49136;47.416;19.402;2022-08-30T15:07:18;29.52;49.78
63051;SHT30;49136;47.416;19.402;2022-08-30T15:09:44;29.22;51.05
63051;SHT30;49136;47.416;19.402;2022-08-30T15:12:09;29.08;51.63
63051;SHT30;49136;47.416;19.402;2022-08-30T15:14:35;28.79;52.16
63051;SHT30;49136;47.416;19.402;2022-08-30T15:17:01;28.62;53.06
63051;SHT30;49136;47.416;19.402;2022-08-30T15:19:30;28.45;53.04
63051;SHT30;49136;47.416;19.402;2022-08-30T15:21:59;28.55;53.66
63051;SHT30;49136;47.416;19.402;2022-08-30T15:24:25;28.52;53.64
63051;SHT30;49136;47.416;19.402;2022-08-30T15:26:51;28.34;53.54
63051;SHT30;49136;47.416;19.402;2022-08-30T15:29:18;28.36;53.67
63051;SHT30;49136;47.416;19.402;2022-08-30T15:31:45;28.34;54.10
63051;SHT30;49136;47.416;19.402;2022-08-30T15:34:14;28.25;54.11
63051;SHT30;49136;47.416;19.402;2022-08-30T15:36:42;28.34;54.77
63051;SHT30;49136;47.416;19.402;2022-08-30T15:39:08;28.33;55.31
63051;SHT30;49136;47.416;19.402;2022-08-30T15:41:34;28.20;55.30
63051;SHT30;49136;47.416;19.402;2022-08-30T15:44:00;28.18;55.34
63051;SHT30;49136;47.416;19.402;2022-08-30T15:46:29;28.02;55.49
63051;SHT30;49136;47.416;19.402;2022-08-30T15:49:01;27.96;55.99
63051;SHT30;49136;47.416;19.402;2022-08-30T15:51:28;27.96;56.29
63051;SHT30;49136;47.416;19.402;2022-08-30T15:53:53;27.97;55.73
63051;SHT30;49136;47.416;19.402;2022-08-30T15:56:19;27.88;55.75
63051;SHT30;49136;47.416;19.402;2022-08-30T15:58:44;27.79;57.36
63051;SHT30;49136;47.416;19.402;2022-08-30T16:01:11;27.63;60.12
63051;SHT30;49136;47.416;19.402;2022-08-30T16:03:37;27.47;58.04
63051;SHT30;49136;47.416;19.402;2022-08-30T16:06:10;27.41;61.24
63051;SHT30;49136;47.416;19.402;2022-08-30T16:08:36;27.33;61.34
63051;SHT30;49136;47.416;19.402;2022-08-30T16:11:04;27.30;60.90
63051;SHT30;49136;47.416;19.402;2022-08-30T16:13:29;27.17;60.47
63051;SHT30;49136;47.416;19.402;2022-08-30T16:15:59;27.13;61.33
63051;SHT30;49136;47.416;19.402;2022-08-30T16:18:25;27.09;59.96
63051;SHT30;49136;47.416;19.402;2022-08-30T16:21:00;27.14;57.76
63051;SHT30;49136;47.416;19.402;2022-08-30T16:23:26;27.14;58.76
63051;SHT30;49136;47.416;19.402;2022-08-30T16:25:51;27.11;57.50
63051;SHT30;49136;47.416;19.402;2022-08-30T16:28:17;27.10;58.21
63051;SHT30;49136;47.416;19.402;2022-08-30T16:30:42;27.00;60.77
63051;SHT30;49136;47.416;19.402;2022-08-30T16:33:07;26.84;60.20